Terminal Aerodrome Forecast
Issued by NWS Newport/Morehead City, NC

Home | Current Version | Previous Version | Text Only | Print | Product List | Glossary On
Versions: 1 2 3 4 5 6 7 8 9 10 11 12 13
570
FTUS42 KMHX 110531
TAFEWN
TAF
KEWN 110531Z 1106/1206 29006KT P6SM SKC
     FM111500 29011G18KT P6SM SKC
     FM112200 29004KT P6SM SKC=

USA.gov is the U.S. government's official web portal to all federal, state and local government web resources and services.